createdAt,value
2018-07-28T00:00:35.601Z,23.30
2018-07-28T00:03:03.641Z,23.30
2018-07-28T00:05:31.730Z,23.30
2018-07-28T00:07:59.770Z,23.20
2018-07-28T00:10:27.848Z,23.20
2018-07-28T00:12:55.951Z,23.20
2018-07-28T00:15:23.946Z,23.10
2018-07-28T00:17:52.062Z,23.10
2018-07-28T00:20:20.074Z,23.10
2018-07-28T00:22:48.210Z,23.00
2018-07-28T00:25:16.237Z,23.00
2018-07-28T00:27:44.354Z,23.00
2018-07-28T00:30:13.242Z,23.00
2018-07-28T00:32:41.321Z,23.00
2018-07-28T00:35:09.463Z,23.00
2018-07-28T00:37:37.693Z,23.00
2018-07-28T00:40:06.010Z,23.00
2018-07-28T00:42:34.247Z,23.00
2018-07-28T00:45:02.332Z,23.00
2018-07-28T00:47:30.322Z,22.90
2018-07-28T00:49:58.444Z,22.90
2018-07-28T00:52:26.514Z,22.90
2018-07-28T00:54:54.602Z,22.90
2018-07-28T00:57:22.666Z,22.80
2018-07-28T00:59:50.734Z,22.80
2018-07-28T01:02:18.824Z,22.80
2018-07-28T01:04:46.878Z,22.70
2018-07-28T01:07:14.908Z,22.70
2018-07-28T01:09:43.035Z,22.60
2018-07-28T01:12:11.129Z,22.60
2018-07-28T01:14:39.173Z,22.60
2018-07-28T01:17:07.241Z,22.60
2018-07-28T01:19:35.346Z,22.50
2018-07-28T01:22:03.362Z,22.40
2018-07-28T01:24:31.458Z,22.40
2018-07-28T01:26:59.529Z,22.40
2018-07-28T01:29:27.707Z,22.40
2018-07-28T01:31:55.719Z,22.40
2018-07-28T01:34:23.764Z,22.40
2018-07-28T01:36:51.821Z,22.50
2018-07-28T01:39:19.913Z,22.40
2018-07-28T01:41:47.933Z,22.40
2018-07-28T01:44:15.973Z,22.40
2018-07-28T01:46:43.998Z,22.40
2018-07-28T01:49:12.084Z,22.40
2018-07-28T01:51:40.154Z,22.40
2018-07-28T01:54:08.205Z,22.30
2018-07-28T01:56:36.308Z,22.30
2018-07-28T01:59:04.370Z,22.30
2018-07-28T02:01:32.492Z,22.30
2018-07-28T02:04:00.519Z,22.30
2018-07-28T02:06:28.586Z,22.30
2018-07-28T02:08:56.657Z,22.30
2018-07-28T02:11:24.721Z,22.20
2018-07-28T02:13:52.810Z,22.20
2018-07-28T02:16:20.844Z,22.20
2018-07-28T02:18:48.959Z,22.20
2018-07-28T02:21:17.150Z,22.20
2018-07-28T02:23:45.181Z,22.10
2018-07-28T02:26:13.245Z,22.10
2018-07-28T02:28:41.348Z,22.00
2018-07-28T02:31:09.391Z,21.90
2018-07-28T02:33:37.471Z,21.90
2018-07-28T02:36:05.489Z,21.90
2018-07-28T02:38:33.607Z,21.90
2018-07-28T02:41:01.650Z,21.90
2018-07-28T02:43:29.721Z,22.00
2018-07-28T02:45:57.763Z,21.90
2018-07-28T02:48:25.870Z,21.90
2018-07-28T02:50:54.049Z,21.90
2018-07-28T02:53:22.066Z,21.90
2018-07-28T02:55:50.113Z,21.90
2018-07-28T02:58:18.171Z,21.90
2018-07-28T03:00:46.230Z,21.90
2018-07-28T03:03:14.238Z,21.90
2018-07-28T03:05:42.277Z,21.80
2018-07-28T03:08:10.337Z,21.80
2018-07-28T03:10:38.429Z,21.90
2018-07-28T03:13:06.490Z,21.80
2018-07-28T03:15:35.581Z,21.80
2018-07-28T03:18:05.407Z,21.80
2018-07-28T03:20:33.478Z,21.70
2018-07-28T03:23:02.471Z,21.70
2018-07-28T03:25:30.638Z,21.70
2018-07-28T03:27:58.718Z,21.70
2018-07-28T03:30:27.393Z,21.80
2018-07-28T03:32:55.469Z,21.70
2018-07-28T03:35:23.546Z,21.70
2018-07-28T03:37:51.587Z,21.80
2018-07-28T03:40:19.689Z,21.80
2018-07-28T03:42:47.722Z,21.80
2018-07-28T03:45:15.766Z,21.80
2018-07-28T03:47:43.788Z,21.80
2018-07-28T03:50:11.884Z,21.70
2018-07-28T03:52:39.908Z,21.70
2018-07-28T03:55:09.161Z,21.70
2018-07-28T03:57:37.173Z,21.60
2018-07-28T04:00:06.542Z,21.70
2018-07-28T04:02:34.594Z,21.80
2018-07-28T04:05:02.665Z,21.70
2018-07-28T04:07:30.768Z,21.60
2018-07-28T04:09:58.808Z,21.60
2018-07-28T04:12:26.820Z,21.70
2018-07-28T04:14:54.950Z,21.60
2018-07-28T04:17:23.022Z,21.70
2018-07-28T04:19:51.092Z,21.70
2018-07-28T04:22:19.119Z,21.70
2018-07-28T04:24:47.178Z,21.80
2018-07-28T04:27:15.317Z,21.80
2018-07-28T04:29:43.510Z,21.80
2018-07-28T04:32:11.522Z,21.80
2018-07-28T04:37:07.453Z,22.00
2018-07-28T04:39:35.462Z,22.00
2018-07-28T04:42:03.477Z,22.00
2018-07-28T04:44:31.622Z,22.10
2018-07-28T04:46:59.684Z,22.10
2018-07-28T04:49:27.863Z,22.10
2018-07-28T04:51:55.888Z,22.10
2018-07-28T04:54:24.125Z,22.10
2018-07-28T04:56:52.181Z,22.20
2018-07-28T04:59:20.441Z,22.20
2018-07-28T05:01:48.525Z,22.20
2018-07-28T05:04:16.510Z,22.20
2018-07-28T05:06:44.645Z,22.20
2018-07-28T05:09:12.744Z,22.20
2018-07-28T05:11:40.802Z,22.30
2018-07-28T05:14:08.824Z,22.30
2018-07-28T05:16:36.926Z,22.40
2018-07-28T05:19:05.007Z,22.50
2018-07-28T05:21:33.068Z,22.50
2018-07-28T05:24:01.086Z,22.60
2018-07-28T05:26:29.249Z,22.60
2018-07-28T05:28:57.244Z,22.60
2018-07-28T05:31:25.321Z,22.60
2018-07-28T05:33:53.433Z,22.60
2018-07-28T05:36:21.494Z,22.60
2018-07-28T05:38:49.532Z,22.60
2018-07-28T05:41:17.889Z,22.60
2018-07-28T05:43:46.154Z,22.70
2018-07-28T05:46:14.413Z,22.80
2018-07-28T05:48:42.800Z,22.80
2018-07-28T05:51:11.753Z,22.90
2018-07-28T05:53:39.973Z,22.90
2018-07-28T05:56:10.240Z,23.00
2018-07-28T05:58:38.474Z,23.10
2018-07-28T06:01:06.529Z,23.20
2018-07-28T06:03:34.551Z,23.20
2018-07-28T06:06:02.688Z,23.30
2018-07-28T06:08:30.781Z,23.40
2018-07-28T06:10:58.861Z,23.40
2018-07-28T06:13:26.896Z,23.40
2018-07-28T06:15:54.938Z,23.50
2018-07-28T06:18:23.041Z,23.50
2018-07-28T06:20:51.129Z,23.60
2018-07-28T06:23:19.169Z,23.70
2018-07-28T06:25:47.259Z,23.70
2018-07-28T06:28:15.360Z,23.70
2018-07-28T06:30:43.474Z,23.70
2018-07-28T06:35:39.477Z,23.90
2018-07-28T06:38:07.517Z,24.00
2018-07-28T06:40:35.593Z,24.10
2018-07-28T06:43:03.640Z,24.20
2018-07-28T06:45:31.765Z,24.20
2018-07-28T06:47:59.805Z,24.30
2018-07-28T06:50:27.920Z,24.30
2018-07-28T06:52:55.954Z,24.50
2018-07-28T06:55:24.026Z,24.60
2018-07-28T06:57:52.092Z,24.70
2018-07-28T07:00:20.151Z,24.90
2018-07-28T07:02:48.158Z,25.10
2018-07-28T07:05:16.211Z,25.20
2018-07-28T07:07:44.232Z,25.30
2018-07-28T07:10:12.391Z,25.40
2018-07-28T07:12:40.633Z,25.50
2018-07-28T07:15:08.971Z,25.60
2018-07-28T07:17:37.120Z,25.70
2018-07-28T07:20:05.165Z,25.70
2018-07-28T07:22:33.389Z,25.80
2018-07-28T07:25:01.931Z,25.90
2018-07-28T07:27:30.021Z,26.00
2018-07-28T07:29:58.793Z,26.10
2018-07-28T07:32:26.961Z,26.20
2018-07-28T07:34:55.026Z,26.30
2018-07-28T07:37:23.230Z,26.40
2018-07-28T07:39:51.452Z,26.50
2018-07-28T07:42:19.577Z,26.60
2018-07-28T07:44:47.729Z,26.70
2018-07-28T07:47:15.811Z,26.70
2018-07-28T07:49:44.095Z,26.70
2018-07-28T07:52:12.145Z,26.70
2018-07-28T07:54:40.165Z,26.80
2018-07-28T07:57:09.142Z,26.90
2018-07-28T07:59:37.218Z,26.90
2018-07-28T08:02:05.781Z,27.00
2018-07-28T08:04:33.955Z,27.00
2018-07-28T08:07:02.565Z,27.10
2018-07-28T08:09:31.438Z,27.20
2018-07-28T08:12:00.120Z,27.30
2018-07-28T08:14:28.197Z,27.40
2018-07-28T08:16:56.386Z,27.50
2018-07-28T08:19:24.838Z,27.60
2018-07-28T08:21:52.925Z,27.60
2018-07-28T08:24:20.930Z,27.60
2018-07-28T08:26:49.500Z,27.70
2018-07-28T08:29:24.099Z,27.80
2018-07-28T08:31:52.269Z,27.90
2018-07-28T08:34:20.333Z,28.00
2018-07-28T08:36:48.443Z,28.00
2018-07-28T08:39:16.490Z,28.10
2018-07-28T08:41:44.982Z,28.10
2018-07-28T08:44:13.667Z,28.20
2018-07-28T08:46:41.827Z,28.20
2018-07-28T08:49:10.076Z,28.30
2018-07-28T08:51:37.970Z,28.40
2018-07-28T08:54:06.099Z,28.50
2018-07-28T08:56:34.150Z,28.50
2018-07-28T08:59:02.174Z,28.50
2018-07-28T09:01:30.266Z,28.60
2018-07-28T09:03:58.293Z,28.60
2018-07-28T09:06:26.333Z,28.70
2018-07-28T09:08:54.378Z,28.60
2018-07-28T09:11:22.453Z,28.60
2018-07-28T09:13:50.498Z,28.70
2018-07-28T09:16:18.638Z,28.80
2018-07-28T09:18:46.696Z,29.00
2018-07-28T09:21:14.757Z,29.10
2018-07-28T09:23:42.816Z,29.10
2018-07-28T09:26:10.870Z,29.30
2018-07-28T09:28:38.898Z,29.60
2018-07-28T09:31:07.026Z,29.80
2018-07-28T09:33:35.128Z,30.00
2018-07-28T09:36:03.171Z,30.10
2018-07-28T09:38:31.254Z,30.30
2018-07-28T09:40:59.314Z,30.30
2018-07-28T09:43:27.366Z,30.40
2018-07-28T09:45:55.420Z,30.50
2018-07-28T09:48:23.828Z,30.60
2018-07-28T09:50:51.947Z,30.70
2018-07-28T09:53:19.994Z,30.80
2018-07-28T09:55:48.009Z,30.80
2018-07-28T09:58:16.850Z,30.80
2018-07-28T10:00:50.463Z,30.80
2018-07-28T10:03:18.520Z,30.90
2018-07-28T10:05:46.803Z,30.90
2018-07-28T10:08:14.970Z,30.90
2018-07-28T10:10:43.467Z,31.00
2018-07-28T10:13:11.631Z,31.10
2018-07-28T10:15:39.694Z,31.10
2018-07-28T10:18:07.765Z,31.10
2018-07-28T10:20:36.028Z,31.20
2018-07-28T10:23:04.194Z,31.00
2018-07-28T10:25:32.279Z,31.10
2018-07-28T10:28:00.607Z,31.20
2018-07-28T10:30:28.630Z,31.30
2018-07-28T10:32:57.211Z,31.50
2018-07-28T10:35:25.461Z,31.50
2018-07-28T10:37:53.512Z,31.60
2018-07-28T10:40:21.558Z,31.60
2018-07-28T10:42:49.593Z,31.60
2018-07-28T10:45:17.699Z,31.70
2018-07-28T10:47:45.779Z,31.70
2018-07-28T10:50:13.942Z,31.50
2018-07-28T10:52:42.031Z,31.50
2018-07-28T10:55:10.074Z,31.60
2018-07-28T10:57:38.178Z,31.60
2018-07-28T11:00:06.702Z,31.80
2018-07-28T11:02:34.817Z,32.00
2018-07-28T11:05:03.024Z,32.20
2018-07-28T11:07:31.187Z,32.20
2018-07-28T11:09:59.206Z,32.30
2018-07-28T11:12:27.238Z,32.30
2018-07-28T11:14:55.302Z,32.40
2018-07-28T11:17:23.362Z,32.60
2018-07-28T11:19:51.441Z,32.60
2018-07-28T11:22:19.524Z,32.70
2018-07-28T11:24:47.545Z,32.80
2018-07-28T11:27:15.662Z,32.80
2018-07-28T11:29:43.690Z,32.90
2018-07-28T11:32:17.642Z,33.00
2018-07-28T11:34:51.545Z,33.20
2018-07-28T11:37:25.969Z,33.30
2018-07-28T11:39:59.809Z,33.40
2018-07-28T11:42:33.581Z,33.50
2018-07-28T11:45:06.458Z,33.80
2018-07-28T11:47:34.779Z,33.90
2018-07-28T11:50:02.835Z,33.90
2018-07-28T11:52:31.242Z,34.00
2018-07-28T11:54:59.418Z,34.10
2018-07-28T11:59:55.281Z,34.00
2018-07-28T12:02:23.371Z,34.00
2018-07-28T12:04:51.439Z,34.20
2018-07-28T12:07:19.522Z,34.30
2018-07-28T12:09:47.582Z,34.20
2018-07-28T12:12:15.636Z,33.80
2018-07-28T12:14:43.762Z,33.90
2018-07-28T12:17:11.800Z,34.30
2018-07-28T12:19:39.867Z,34.40
2018-07-28T12:22:07.949Z,34.30
2018-07-28T12:24:36.018Z,34.80
2018-07-28T12:27:04.095Z,36.50
2018-07-28T12:29:32.296Z,36.80
2018-07-28T12:32:00.337Z,36.40
2018-07-28T12:34:28.424Z,35.70
2018-07-28T12:36:56.485Z,36.80
2018-07-28T12:39:24.668Z,38.10
2018-07-28T12:41:52.712Z,39.00
2018-07-28T12:44:20.782Z,40.80
2018-07-28T12:46:48.889Z,42.10
2018-07-28T12:49:16.970Z,44.00
2018-07-28T12:51:45.060Z,44.60
2018-07-28T12:54:13.101Z,45.90
2018-07-28T12:56:41.166Z,46.00
2018-07-28T12:59:09.209Z,46.50
2018-07-28T13:01:37.250Z,46.10
2018-07-28T13:04:05.322Z,46.40
2018-07-28T13:06:33.364Z,46.50
2018-07-28T13:09:01.582Z,46.20
2018-07-28T13:13:57.474Z,45.80
2018-07-28T13:16:25.569Z,46.60
2018-07-28T13:18:53.587Z,46.60
2018-07-28T13:21:21.612Z,46.70
2018-07-28T13:23:49.656Z,45.80
2018-07-28T13:26:17.729Z,44.90
2018-07-28T13:28:45.840Z,44.40
2018-07-28T13:31:13.985Z,45.10
2018-07-28T13:33:42.049Z,44.90
2018-07-28T13:36:10.077Z,45.10
2018-07-28T13:38:39.202Z,46.00
2018-07-28T13:41:07.266Z,46.60
2018-07-28T13:43:35.370Z,46.00
2018-07-28T13:46:03.390Z,46.90
2018-07-28T13:48:31.461Z,47.00
2018-07-28T13:50:59.577Z,46.50
2018-07-28T13:53:27.670Z,46.10
2018-07-28T13:55:55.726Z,45.60
2018-07-28T13:58:23.814Z,46.00
2018-07-28T14:00:51.892Z,47.00
2018-07-28T14:03:19.930Z,47.20
2018-07-28T14:05:48.001Z,46.80
2018-07-28T14:08:16.039Z,46.80
2018-07-28T14:10:44.095Z,46.00
2018-07-28T14:13:12.259Z,46.10
2018-07-28T14:15:40.324Z,46.30
2018-07-28T14:18:08.433Z,45.60
2018-07-28T14:20:36.434Z,46.10
2018-07-28T14:23:04.528Z,45.30
2018-07-28T14:25:32.573Z,45.40
2018-07-28T14:28:00.621Z,45.90
2018-07-28T14:30:28.768Z,44.70
2018-07-28T14:32:56.914Z,43.20
2018-07-28T14:35:24.977Z,41.90
2018-07-28T14:37:53.181Z,41.00
2018-07-28T14:40:21.339Z,40.70
2018-07-28T14:42:49.342Z,39.90
2018-07-28T14:45:17.482Z,39.60
2018-07-28T14:47:45.657Z,39.40
2018-07-28T14:50:13.705Z,39.70
2018-07-28T14:52:41.719Z,39.50
2018-07-28T14:55:09.943Z,40.30
2018-07-28T14:57:37.999Z,41.50
2018-07-28T15:00:06.418Z,42.00
2018-07-28T15:02:34.526Z,42.40
2018-07-28T15:05:02.562Z,42.80
2018-07-28T15:07:30.601Z,42.40
2018-07-28T15:09:58.642Z,43.10
2018-07-28T15:12:26.675Z,43.10
2018-07-28T15:14:54.781Z,43.90
2018-07-28T15:17:22.990Z,43.80
2018-07-28T15:19:51.160Z,44.30
2018-07-28T15:22:19.161Z,43.90
2018-07-28T15:24:47.277Z,43.90
2018-07-28T15:27:15.345Z,44.00
2018-07-28T15:29:43.437Z,44.10
2018-07-28T15:32:11.466Z,44.40
2018-07-28T15:34:39.560Z,44.40
2018-07-28T15:37:07.563Z,44.10
2018-07-28T15:39:35.625Z,43.60
2018-07-28T15:42:03.658Z,43.80
2018-07-28T15:44:31.703Z,44.30
2018-07-28T15:46:59.750Z,44.60
2018-07-28T15:49:27.801Z,44.50
2018-07-28T15:51:55.854Z,44.90
2018-07-28T15:54:23.946Z,44.90
2018-07-28T15:56:52.043Z,44.30
2018-07-28T15:59:20.086Z,43.40
2018-07-28T16:01:48.194Z,42.90
2018-07-28T16:04:17.175Z,42.90
2018-07-28T16:06:45.463Z,42.70
2018-07-28T16:09:13.734Z,42.70
2018-07-28T16:11:41.893Z,43.10
2018-07-28T16:14:10.038Z,43.00
2018-07-28T16:16:38.093Z,42.80
2018-07-28T16:19:06.205Z,42.20
2018-07-28T16:21:34.342Z,40.90
2018-07-28T16:24:02.457Z,39.50
2018-07-28T16:26:30.973Z,39.90
2018-07-28T16:28:59.737Z,40.60
2018-07-28T16:31:28.406Z,41.00
2018-07-28T16:33:56.826Z,41.70
2018-07-28T16:36:24.938Z,41.60
2018-07-28T16:38:52.965Z,41.50
2018-07-28T16:41:21.016Z,41.20
2018-07-28T16:43:49.037Z,41.20
2018-07-28T16:46:17.128Z,41.30
2018-07-28T16:48:45.173Z,41.00
2018-07-28T16:51:13.374Z,40.50
2018-07-28T16:53:41.329Z,40.10
2018-07-28T16:56:09.374Z,40.10
2018-07-28T16:58:37.482Z,40.00
2018-07-28T17:01:05.543Z,39.50
2018-07-28T17:03:33.650Z,39.50
2018-07-28T17:06:01.658Z,39.50
2018-07-28T17:08:29.682Z,39.50
2018-07-28T17:10:57.747Z,39.10
2018-07-28T17:13:25.794Z,38.30
2018-07-28T17:15:53.985Z,37.60
2018-07-28T17:18:22.571Z,36.60
2018-07-28T17:20:50.669Z,36.00
2018-07-28T17:23:18.736Z,35.50
2018-07-28T17:25:46.742Z,35.00
2018-07-28T17:28:14.857Z,34.50
2018-07-28T17:30:42.941Z,34.20
2018-07-28T17:33:11.132Z,33.80
2018-07-28T17:35:39.148Z,33.60
2018-07-28T17:38:07.288Z,33.30
2018-07-28T17:40:35.320Z,32.90
2018-07-28T17:43:03.497Z,32.00
2018-07-28T17:45:31.570Z,30.70
2018-07-28T17:47:59.646Z,29.70
2018-07-28T17:50:27.649Z,29.00
2018-07-28T17:52:55.781Z,28.70
2018-07-28T17:55:23.857Z,28.50
2018-07-28T17:57:51.934Z,28.20
2018-07-28T18:00:19.954Z,27.80
2018-07-28T18:02:48.085Z,27.60
2018-07-28T18:05:16.097Z,27.20
2018-07-28T18:07:44.659Z,26.90
2018-07-28T18:10:12.641Z,26.20
2018-07-28T18:12:40.779Z,25.20
2018-07-28T18:15:08.801Z,24.30
2018-07-28T18:17:36.849Z,23.70
2018-07-28T18:20:04.893Z,23.10
2018-07-28T18:22:33.001Z,22.80
2018-07-28T18:25:01.454Z,22.60
2018-07-28T18:27:29.546Z,22.50
2018-07-28T18:29:57.646Z,22.40
2018-07-28T18:32:25.785Z,22.20
2018-07-28T18:34:53.829Z,21.90
2018-07-28T18:37:21.959Z,21.80
2018-07-28T18:39:50.042Z,21.70
2018-07-28T18:42:18.079Z,21.50
2018-07-28T18:44:46.155Z,21.50
2018-07-28T18:47:14.248Z,21.40
2018-07-28T18:49:42.420Z,21.50
2018-07-28T18:52:10.819Z,21.50
2018-07-28T18:54:39.803Z,21.60
2018-07-28T18:57:07.778Z,21.60
2018-07-28T18:59:35.957Z,21.70
2018-07-28T19:02:04.101Z,21.80
2018-07-28T19:04:32.265Z,21.90
2018-07-28T19:07:00.449Z,21.90
2018-07-28T19:09:34.222Z,21.80
2018-07-28T19:12:02.326Z,21.80
2018-07-28T19:14:35.967Z,21.80
2018-07-28T19:17:04.085Z,21.80
2018-07-28T19:19:32.185Z,21.80
2018-07-28T19:22:00.221Z,21.90
2018-07-28T19:24:28.345Z,21.90
2018-07-28T19:26:56.390Z,21.80
2018-07-28T19:29:29.949Z,21.80
2018-07-28T19:34:25.759Z,21.90
2018-07-28T19:36:59.459Z,21.90
2018-07-28T19:39:27.467Z,21.90
2018-07-28T19:42:00.979Z,21.90
2018-07-28T19:44:29.094Z,22.00
2018-07-28T19:46:57.140Z,22.00
2018-07-28T19:49:25.181Z,22.10
2018-07-28T19:51:54.012Z,22.10
2018-07-28T19:54:22.077Z,22.10
2018-07-28T19:56:50.157Z,22.00
2018-07-28T19:59:18.667Z,22.00
2018-07-28T20:01:46.881Z,22.00
2018-07-28T20:06:43.574Z,22.10
2018-07-28T20:09:11.698Z,22.20
2018-07-28T20:11:39.845Z,22.30
2018-07-28T20:14:08.085Z,22.30
2018-07-28T20:16:36.056Z,22.20
2018-07-28T20:19:04.138Z,22.20
2018-07-28T20:21:32.172Z,22.30
2018-07-28T20:24:00.290Z,22.30
2018-07-28T20:26:28.526Z,22.40
2018-07-28T20:28:56.537Z,22.40
2018-07-28T20:31:24.601Z,22.40
2018-07-28T20:33:52.822Z,22.40
2018-07-28T20:36:20.879Z,22.30
2018-07-28T20:38:48.953Z,22.30
2018-07-28T20:41:17.030Z,22.20
2018-07-28T20:43:45.062Z,22.20
2018-07-28T20:46:13.122Z,22.20
2018-07-28T20:48:41.347Z,22.20
2018-07-28T20:51:09.453Z,22.20
2018-07-28T20:53:37.471Z,22.30
2018-07-28T20:56:07.790Z,22.30
2018-07-28T20:58:36.912Z,22.40
2018-07-28T21:01:06.139Z,22.40
2018-07-28T21:03:34.358Z,22.40
2018-07-28T21:06:02.468Z,22.40
2018-07-28T21:08:30.613Z,22.50
2018-07-28T21:10:59.390Z,22.50
2018-07-28T21:13:27.466Z,22.60
2018-07-28T21:15:56.488Z,22.70
2018-07-28T21:18:25.677Z,22.70
2018-07-28T21:20:53.747Z,22.80
2018-07-28T21:23:21.836Z,22.80
2018-07-28T21:25:49.882Z,22.80
2018-07-28T21:28:17.915Z,22.90
2018-07-28T21:30:46.026Z,22.90
2018-07-28T21:33:14.361Z,22.90
2018-07-28T21:35:42.405Z,22.90
2018-07-28T21:38:10.431Z,22.90
2018-07-28T21:40:38.486Z,22.90
2018-07-28T21:43:06.507Z,23.00
2018-07-28T21:45:34.690Z,23.00
2018-07-28T21:48:02.765Z,23.00
2018-07-28T21:50:30.802Z,23.00
2018-07-28T21:52:58.879Z,23.00
2018-07-28T21:55:26.922Z,23.00
2018-07-28T21:57:55.026Z,23.00
2018-07-28T22:00:23.097Z,23.00
2018-07-28T22:02:51.275Z,23.00
2018-07-28T22:05:20.191Z,22.90
2018-07-28T22:07:49.189Z,22.90
2018-07-28T22:10:17.233Z,22.80
2018-07-28T22:12:45.271Z,22.80
2018-07-28T22:15:13.303Z,22.80
2018-07-28T22:17:41.476Z,22.80
2018-07-28T22:20:09.521Z,22.80
2018-07-28T22:22:37.689Z,22.70
2018-07-28T22:25:05.706Z,22.70
2018-07-28T22:27:33.759Z,22.60
2018-07-28T22:30:01.814Z,22.60
2018-07-28T22:32:29.885Z,22.50
2018-07-28T22:34:57.958Z,22.50
2018-07-28T22:37:26.157Z,22.40
2018-07-28T22:39:54.158Z,22.40
2018-07-28T22:42:26.781Z,22.40
2018-07-28T22:44:54.809Z,22.40
2018-07-28T22:47:22.854Z,22.40
2018-07-28T22:49:50.879Z,22.30
2018-07-28T22:52:18.918Z,22.30
2018-07-28T22:54:46.964Z,22.30
2018-07-28T22:57:15.011Z,22.40
2018-07-28T22:59:43.096Z,22.40
2018-07-28T23:02:11.165Z,22.30
2018-07-28T23:04:39.225Z,22.30
2018-07-28T23:07:07.298Z,22.30
2018-07-28T23:09:35.338Z,22.30
2018-07-28T23:12:03.438Z,22.30
2018-07-28T23:14:31.511Z,22.30
2018-07-28T23:16:59.587Z,22.20
2018-07-28T23:19:27.694Z,22.30
2018-07-28T23:21:55.729Z,22.20
2018-07-28T23:24:23.811Z,22.10
2018-07-28T23:26:51.873Z,22.10
2018-07-28T23:29:19.945Z,22.00
2018-07-28T23:31:48.130Z,22.00
2018-07-28T23:34:16.156Z,22.00
2018-07-28T23:39:11.970Z,21.90
2018-07-28T23:41:40.188Z,21.80
2018-07-28T23:44:08.202Z,21.70
2018-07-28T23:46:36.242Z,21.60
2018-07-28T23:49:04.466Z,21.50
2018-07-28T23:51:32.518Z,21.50
2018-07-28T23:54:00.589Z,21.50
2018-07-28T23:56:28.696Z,21.40
2018-07-28T23:58:56.845Z,21.30
